createdAt,value
2022-10-18T00:00:47.370Z,96600.81
2022-10-18T00:03:15.685Z,96610.69
2022-10-18T00:05:44.570Z,96600.41
2022-10-18T00:08:11.164Z,96602.41
2022-10-18T00:10:37.634Z,96604.09
2022-10-18T00:13:04.214Z,96605.34
2022-10-18T00:15:31.147Z,96610.88
2022-10-18T00:17:57.696Z,96609.03
2022-10-18T00:20:24.201Z,96604.31
2022-10-18T00:22:50.675Z,96602.28
2022-10-18T00:25:17.891Z,96606.16
2022-10-18T00:27:46.410Z,96601.66
2022-10-18T00:30:13.215Z,96608.41
2022-10-18T00:32:41.345Z,96604.09
2022-10-18T00:35:08.820Z,96617.47
2022-10-18T00:37:35.799Z,96620.31
2022-10-18T00:40:02.382Z,96611.84
2022-10-18T00:42:35.148Z,96613.97
2022-10-18T00:45:14.367Z,96611.31
2022-10-18T00:47:44.603Z,96610.25
2022-10-18T00:50:17.803Z,96604.69
2022-10-18T00:52:51.461Z,96608.38
2022-10-18T00:55:18.297Z,96619.25
2022-10-18T00:57:45.404Z,96611.25
2022-10-18T01:00:12.567Z,96625.00
2022-10-18T01:02:42.251Z,96618.91
2022-10-18T01:05:11.795Z,96619.13
2022-10-18T01:08:15.833Z,96621.19
2022-10-18T01:10:55.317Z,96624.50
2022-10-18T01:13:34.266Z,96630.06
2022-10-18T01:16:19.724Z,96630.06
2022-10-18T01:19:06.815Z,96621.66
2022-10-18T01:22:07.084Z,96620.63
2022-10-18T01:24:45.931Z,96620.81
2022-10-18T01:27:45.782Z,96620.63
2022-10-18T01:30:48.810Z,96614.66
2022-10-18T01:33:42.703Z,96616.69
2022-10-18T01:36:20.997Z,96618.09
2022-10-18T01:38:52.171Z,96617.44
2022-10-18T01:41:23.106Z,96614.56
2022-10-18T01:43:57.139Z,96612.13
2022-10-18T01:46:25.718Z,96616.00
2022-10-18T01:48:54.365Z,96620.94
2022-10-18T01:51:30.152Z,96620.28
2022-10-18T01:53:57.473Z,96635.47
2022-10-18T01:56:51.622Z,96620.31
2022-10-18T01:59:36.875Z,96629.34
2022-10-18T02:02:24.537Z,96621.09
2022-10-18T02:05:03.850Z,96622.75
2022-10-18T02:08:12.322Z,96618.66
2022-10-18T02:10:52.955Z,96615.34
2022-10-18T02:13:23.761Z,96606.72
2022-10-18T02:15:58.110Z,96608.75
2022-10-18T02:18:34.935Z,96616.53
2022-10-18T02:21:08.036Z,96616.91
2022-10-18T02:23:37.296Z,96623.91
2022-10-18T02:26:04.132Z,96614.88
2022-10-18T02:28:31.561Z,96607.91
2022-10-18T02:31:10.236Z,96616.06
2022-10-18T02:34:13.890Z,96610.72
2022-10-18T02:36:49.340Z,96607.03
2022-10-18T02:39:25.526Z,96615.03
2022-10-18T02:41:53.646Z,96615.19
2022-10-18T02:44:20.156Z,96608.81
2022-10-18T02:46:47.485Z,96606.31
2022-10-18T02:49:14.133Z,96610.25
2022-10-18T02:51:40.849Z,96604.03
2022-10-18T02:54:07.389Z,96604.88
2022-10-18T02:56:34.744Z,96606.72
2022-10-18T02:59:01.387Z,96610.59
2022-10-18T03:01:27.907Z,96612.63
2022-10-18T03:03:54.406Z,96615.13
2022-10-18T03:06:20.907Z,96619.19
2022-10-18T03:08:47.415Z,96622.03
2022-10-18T03:11:13.946Z,96627.78
2022-10-18T03:13:40.401Z,96629.41
2022-10-18T03:16:07.010Z,96629.41
2022-10-18T03:18:33.474Z,96633.50
2022-10-18T03:21:04.585Z,96632.06
2022-10-18T03:23:31.238Z,96640.03
2022-10-18T03:25:57.734Z,96642.84
2022-10-18T03:28:24.210Z,96639.56
2022-10-18T03:30:50.772Z,96642.00
2022-10-18T03:33:17.235Z,96643.25
2022-10-18T03:35:43.781Z,96642.84
2022-10-18T03:38:10.255Z,96639.34
2022-10-18T03:40:36.727Z,96643.66
2022-10-18T03:43:03.267Z,96636.53
2022-10-18T03:45:31.368Z,96647.59
2022-10-18T03:47:58.223Z,96642.66
2022-10-18T03:50:24.734Z,96645.69
2022-10-18T03:52:51.377Z,96648.59
2022-10-18T03:55:17.853Z,96649.13
2022-10-18T03:57:44.324Z,96649.50
2022-10-18T04:00:11.466Z,96653.53
2022-10-18T04:02:37.942Z,96661.44
2022-10-18T04:05:04.648Z,96670.16
2022-10-18T04:07:31.146Z,96663.44
2022-10-18T04:09:57.638Z,96672.84
2022-10-18T04:12:24.170Z,96668.41
2022-10-18T04:14:50.678Z,96678.69
2022-10-18T04:17:17.334Z,96681.34
2022-10-18T04:19:43.798Z,96678.69
2022-10-18T04:22:11.309Z,96677.00
2022-10-18T04:24:38.794Z,96680.72
2022-10-18T04:27:06.890Z,96672.56
2022-10-18T04:29:34.496Z,96673.38
2022-10-18T04:32:01.043Z,96669.00
2022-10-18T04:34:30.524Z,96671.25
2022-10-18T04:36:57.185Z,96675.94
2022-10-18T04:39:23.685Z,96669.16
2022-10-18T04:41:50.234Z,96666.69
2022-10-18T04:44:16.767Z,96665.03
2022-10-18T04:46:43.259Z,96657.22
2022-10-18T04:49:09.783Z,96665.69
2022-10-18T04:51:36.224Z,96668.34
2022-10-18T04:54:02.725Z,96669.72
2022-10-18T04:56:29.144Z,96674.44
2022-10-18T04:58:58.363Z,96673.22
2022-10-18T05:01:25.033Z,96683.22
2022-10-18T05:03:55.471Z,96678.53
2022-10-18T05:06:22.951Z,96679.81
2022-10-18T05:08:49.610Z,96681.72
2022-10-18T05:11:16.227Z,96681.63
2022-10-18T05:13:44.936Z,96674.63
2022-10-18T05:16:13.669Z,96676.09
2022-10-18T05:18:40.132Z,96672.22
2022-10-18T05:21:06.689Z,96672.22
2022-10-18T05:23:33.285Z,96682.91
2022-10-18T05:26:04.705Z,96677.09
2022-10-18T05:28:39.661Z,96678.19
2022-10-18T05:31:10.017Z,96683.13
2022-10-18T05:33:36.730Z,96683.00
2022-10-18T05:36:04.158Z,96686.06
2022-10-18T05:38:30.684Z,96686.31
2022-10-18T05:40:57.713Z,96680.13
2022-10-18T05:43:27.807Z,96684.72
2022-10-18T05:45:54.316Z,96684.66
2022-10-18T05:48:20.816Z,96687.50
2022-10-18T05:50:47.268Z,96689.19
2022-10-18T05:53:35.336Z,96685.78
2022-10-18T05:56:02.031Z,96683.31
2022-10-18T05:58:28.691Z,96679.03
2022-10-18T06:00:58.699Z,96681.13
2022-10-18T06:03:25.269Z,96680.78
2022-10-18T06:06:03.160Z,96675.47
2022-10-18T06:08:29.680Z,96671.56
2022-10-18T06:10:56.724Z,96675.47
2022-10-18T06:13:23.344Z,96680.78
2022-10-18T06:15:50.140Z,96684.84
2022-10-18T06:18:16.631Z,96673.81
2022-10-18T06:20:43.116Z,96674.47
2022-10-18T06:23:09.613Z,96676.31
2022-10-18T06:25:36.098Z,96679.03
2022-10-18T06:28:05.994Z,96678.22
2022-10-18T06:30:36.525Z,96680.50
2022-10-18T06:33:03.037Z,96689.50
2022-10-18T06:35:29.518Z,96694.00
2022-10-18T06:37:56.008Z,96694.84
2022-10-18T06:40:22.535Z,96696.09
2022-10-18T06:42:59.954Z,96706.75
2022-10-18T06:45:27.194Z,96706.38
2022-10-18T06:47:56.659Z,96712.13
2022-10-18T06:50:23.144Z,96707.06
2022-10-18T06:52:52.371Z,96710.53
2022-10-18T06:55:18.843Z,96706.09
2022-10-18T06:57:45.362Z,96716.00
2022-10-18T07:00:12.507Z,96702.09
2022-10-18T07:02:39.005Z,96712.19
2022-10-18T07:05:05.932Z,96717.00
2022-10-18T07:07:32.664Z,96717.25
2022-10-18T07:09:59.456Z,96720.31
2022-10-18T07:12:25.957Z,96709.94
2022-10-18T07:14:52.498Z,96705.94
2022-10-18T07:17:19.044Z,96711.69
2022-10-18T07:19:45.683Z,96714.22
2022-10-18T07:22:12.147Z,96706.41
2022-10-18T07:24:38.617Z,96713.88
2022-10-18T07:27:05.661Z,96720.06
2022-10-18T07:29:32.391Z,96719.03
2022-10-18T07:32:01.439Z,96712.28
2022-10-18T07:34:27.900Z,96719.06
2022-10-18T07:36:54.399Z,96722.59
2022-10-18T07:39:20.968Z,96715.59
2022-10-18T07:41:47.513Z,96716.41
2022-10-18T07:44:14.053Z,96717.66
2022-10-18T07:46:40.552Z,96709.84
2022-10-18T07:49:07.215Z,96716.00
2022-10-18T07:51:33.721Z,96722.19
2022-10-18T07:54:00.193Z,96717.25
2022-10-18T07:56:26.810Z,96711.69
2022-10-18T07:58:55.861Z,96712.72
2022-10-18T08:01:24.311Z,96710.88
2022-10-18T08:03:52.094Z,96708.38
2022-10-18T08:06:20.530Z,96711.91
2022-10-18T08:08:47.769Z,96706.97
2022-10-18T08:11:17.615Z,96717.25
2022-10-18T08:13:44.386Z,96717.66
2022-10-18T08:16:17.820Z,96723.84
2022-10-18T08:18:44.660Z,96718.88
2022-10-18T08:21:13.628Z,96717.84
2022-10-18T08:23:40.958Z,96711.03
2022-10-18T08:26:13.372Z,96729.97
2022-10-18T08:28:40.485Z,96720.94
2022-10-18T08:31:12.925Z,96715.56
2022-10-18T08:33:39.862Z,96727.09
2022-10-18T08:36:10.287Z,96711.03
2022-10-18T08:38:39.549Z,96717.63
2022-10-18T08:41:29.689Z,96724.19
2022-10-18T08:44:07.716Z,96721.69
2022-10-18T08:46:39.320Z,96715.56
2022-10-18T08:49:14.553Z,96710.75
2022-10-18T08:51:48.969Z,96703.53
2022-10-18T08:54:24.444Z,96704.34
2022-10-18T08:57:02.050Z,96710.94
2022-10-18T08:59:37.877Z,96703.00
2022-10-18T09:02:09.982Z,96716.13
2022-10-18T09:04:48.630Z,96704.78
2022-10-18T09:07:40.019Z,96699.47
2022-10-18T09:10:34.104Z,96701.06
2022-10-18T09:13:38.058Z,96698.56
2022-10-18T09:16:10.831Z,96702.63
2022-10-18T09:19:19.470Z,96706.38
2022-10-18T09:21:51.769Z,96698.44
2022-10-18T09:24:26.794Z,96697.31
2022-10-18T09:27:02.687Z,96691.88
2022-10-18T09:30:00.942Z,96696.13
2022-10-18T09:32:45.525Z,96689.16
2022-10-18T09:35:28.180Z,96692.31
2022-10-18T09:38:12.952Z,96687.66
2022-10-18T09:40:53.143Z,96693.22
2022-10-18T09:43:26.124Z,96678.00
2022-10-18T09:45:55.437Z,96684.06
2022-10-18T09:48:29.182Z,96675.34
2022-10-18T09:50:58.468Z,96674.59
2022-10-18T09:53:42.616Z,96681.34
2022-10-18T09:56:20.048Z,96677.44
2022-10-18T09:58:48.843Z,96685.47
2022-10-18T10:01:24.228Z,96680.19
2022-10-18T10:03:52.639Z,96678.41
2022-10-18T10:06:28.890Z,96670.38
2022-10-18T10:09:00.944Z,96675.31
2022-10-18T10:11:38.277Z,96678.41
2022-10-18T10:14:18.848Z,96676.50
2022-10-18T10:16:58.463Z,96673.47
2022-10-18T10:19:39.456Z,96675.56
2022-10-18T10:22:14.347Z,96670.34
2022-10-18T10:24:53.516Z,96675.91
2022-10-18T10:27:29.405Z,96673.16
2022-10-18T10:30:07.051Z,96680.22
2022-10-18T10:32:52.962Z,96678.00
2022-10-18T10:38:27.158Z,96671.09
2022-10-18T10:40:54.439Z,96669.97
2022-10-18T10:43:36.360Z,96667.06
2022-10-18T10:46:11.842Z,96670.06
2022-10-18T10:48:47.032Z,96664.56
2022-10-18T10:51:18.064Z,96659.38
2022-10-18T10:53:56.888Z,96660.47
2022-10-18T10:56:29.921Z,96662.03
2022-10-18T10:59:13.434Z,96655.72
2022-10-18T11:01:40.368Z,96658.44
2022-10-18T11:04:29.012Z,96650.94
2022-10-18T11:07:26.052Z,96649.06
2022-10-18T11:10:03.025Z,96642.78
2022-10-18T11:12:45.642Z,96643.81
2022-10-18T11:15:45.035Z,96636.59
2022-10-18T11:18:14.090Z,96632.50
2022-10-18T11:20:47.263Z,96630.19
2022-10-18T11:23:19.134Z,96638.50
2022-10-18T11:25:45.529Z,96627.31
2022-10-18T11:28:23.341Z,96624.31
2022-10-18T11:30:54.186Z,96623.59
2022-10-18T11:34:09.928Z,96618.00
2022-10-18T11:37:26.283Z,96613.72
2022-10-18T11:40:23.102Z,96614.44
2022-10-18T11:43:17.314Z,96600.28
2022-10-18T11:45:49.825Z,96602.22
2022-10-18T11:48:34.945Z,96599.84
2022-10-18T11:51:34.073Z,96589.56
2022-10-18T11:54:37.795Z,96587.56
2022-10-18T11:57:30.845Z,96580.38
2022-10-18T11:59:57.474Z,96574.19
2022-10-18T12:02:51.219Z,96566.72
2022-10-18T12:05:23.608Z,96576.56
2022-10-18T12:08:13.151Z,96556.22
2022-10-18T12:11:03.893Z,96556.88
2022-10-18T12:13:44.102Z,96556.88
2022-10-18T12:16:11.908Z,96547.09
2022-10-18T12:21:28.905Z,96551.94
2022-10-18T12:23:58.199Z,96549.41
2022-10-18T12:26:27.703Z,96543.88
2022-10-18T12:29:26.911Z,96534.34
2022-10-18T12:32:02.267Z,96540.22
2022-10-18T12:34:42.509Z,96530.22
2022-10-18T12:37:33.703Z,96524.69
2022-10-18T12:40:28.211Z,96520.25
2022-10-18T12:42:56.186Z,96519.34
2022-10-18T12:45:32.591Z,96514.06
2022-10-18T12:48:08.102Z,96517.09
2022-10-18T12:50:44.738Z,96507.63
2022-10-18T12:53:26.194Z,96512.22
2022-10-18T12:55:54.205Z,96497.09
2022-10-18T12:58:20.619Z,96492.84
2022-10-18T13:00:47.049Z,96498.84
2022-10-18T13:03:13.608Z,96493.00
2022-10-18T13:05:53.541Z,96491.50
2022-10-18T13:08:29.841Z,96492.28
2022-10-18T13:11:08.427Z,96493.91
2022-10-18T13:14:08.581Z,96490.16
2022-10-18T13:16:56.284Z,96485.09
2022-10-18T13:20:20.478Z,96489.53
2022-10-18T13:23:10.716Z,96481.53
2022-10-18T13:26:12.994Z,96473.75
2022-10-18T13:28:49.980Z,96471.25
2022-10-18T13:31:36.699Z,96471.38
2022-10-18T13:34:21.319Z,96474.72
2022-10-18T13:37:04.366Z,96475.09
2022-10-18T13:39:32.916Z,96474.22
2022-10-18T13:41:59.348Z,96476.22
2022-10-18T13:44:29.607Z,96475.84
2022-10-18T13:46:56.001Z,96471.13
2022-10-18T13:49:47.084Z,96468.69
2022-10-18T13:52:50.869Z,96469.09
2022-10-18T13:55:46.716Z,96465.38
2022-10-18T13:58:48.823Z,96471.38
2022-10-18T14:01:28.904Z,96469.44
2022-10-18T14:04:13.775Z,96471.72
2022-10-18T14:06:47.097Z,96468.00
2022-10-18T14:09:45.163Z,96466.47
2022-10-18T14:12:30.311Z,96460.47
2022-10-18T14:15:26.371Z,96466.47
2022-10-18T14:18:02.097Z,96472.38
2022-10-18T14:20:49.095Z,96462.84
2022-10-18T14:23:31.583Z,96464.72
2022-10-18T14:26:12.362Z,96461.34
2022-10-18T14:28:58.679Z,96462.09
2022-10-18T14:31:25.692Z,96457.84
2022-10-18T14:33:57.908Z,96450.97
2022-10-18T14:36:36.020Z,96450.56
2022-10-18T14:39:05.780Z,96453.75
2022-10-18T14:41:34.907Z,96457.63
2022-10-18T14:44:16.288Z,96457.06
2022-10-18T14:46:51.898Z,96448.38
2022-10-18T14:49:20.578Z,96450.59
2022-10-18T14:51:59.851Z,96448.88
2022-10-18T14:54:37.349Z,96444.97
2022-10-18T14:57:06.786Z,96444.44
2022-10-18T14:59:46.325Z,96436.66
2022-10-18T15:02:17.342Z,96440.94
2022-10-18T15:04:45.657Z,96435.03
2022-10-18T15:07:17.956Z,96436.03
2022-10-18T15:09:46.995Z,96425.28
2022-10-18T15:12:17.354Z,96429.78
2022-10-18T15:14:46.506Z,96430.84
2022-10-18T15:17:20.305Z,96422.72
2022-10-18T15:20:05.209Z,96429.31
2022-10-18T15:22:33.948Z,96425.06
2022-10-18T15:25:15.683Z,96425.06
2022-10-18T15:27:46.436Z,96424.53
2022-10-18T15:30:23.222Z,96426.81
2022-10-18T15:32:59.636Z,96429.53
2022-10-18T15:35:32.383Z,96434.22
2022-10-18T15:38:36.342Z,96426.66
2022-10-18T15:41:39.138Z,96427.59
2022-10-18T15:44:19.722Z,96421.13
2022-10-18T15:46:46.979Z,96414.09
2022-10-18T15:49:43.955Z,96416.56
2022-10-18T15:52:39.066Z,96401.88
2022-10-18T15:55:44.916Z,96402.94
2022-10-18T15:58:46.349Z,96394.69
2022-10-18T16:01:43.220Z,96394.03
2022-10-18T16:04:31.198Z,96394.13
2022-10-18T16:06:58.475Z,96393.16
2022-10-18T16:09:28.306Z,96393.94
2022-10-18T16:11:57.177Z,96392.84
2022-10-18T16:14:25.446Z,96391.59
2022-10-18T16:16:55.244Z,96392.97
2022-10-18T16:19:21.997Z,96389.94
2022-10-18T16:21:50.375Z,96390.59
2022-10-18T16:24:18.283Z,96396.56
2022-10-18T16:26:45.205Z,96396.06
2022-10-18T16:29:21.896Z,96387.22
2022-10-18T16:31:48.455Z,96395.31
2022-10-18T16:34:14.909Z,96393.09
2022-10-18T16:36:41.765Z,96398.38
2022-10-18T16:39:19.348Z,96392.44
2022-10-18T16:41:46.155Z,96394.31
2022-10-18T16:44:13.779Z,96406.50
2022-10-18T16:46:40.605Z,96401.72
2022-10-18T16:49:17.702Z,96405.13
2022-10-18T16:51:44.198Z,96404.41
2022-10-18T16:54:10.759Z,96403.09
2022-10-18T16:56:38.722Z,96404.25
2022-10-18T16:59:05.491Z,96408.69
2022-10-18T17:01:32.002Z,96411.59
2022-10-18T17:03:58.475Z,96416.34
2022-10-18T17:06:30.034Z,96414.38
2022-10-18T17:08:57.335Z,96414.56
2022-10-18T17:11:26.199Z,96418.00
2022-10-18T17:13:53.650Z,96415.06
2022-10-18T17:16:32.446Z,96419.09
2022-10-18T17:19:02.247Z,96421.06
2022-10-18T17:21:30.057Z,96422.66
2022-10-18T17:23:57.157Z,96426.53
2022-10-18T17:26:28.924Z,96432.34
2022-10-18T17:29:02.933Z,96433.47
2022-10-18T17:31:31.617Z,96442.41
2022-10-18T17:33:58.097Z,96432.09
2022-10-18T17:36:25.800Z,96448.25
2022-10-18T17:38:55.499Z,96449.50
2022-10-18T17:41:22.704Z,96451.63
2022-10-18T17:43:49.752Z,96448.78
2022-10-18T17:46:17.155Z,96451.16
2022-10-18T17:48:43.623Z,96446.22
2022-10-18T17:51:13.057Z,96453.91
2022-10-18T17:53:39.911Z,96446.94
2022-10-18T17:56:06.934Z,96458.09
2022-10-18T17:58:34.010Z,96449.09
2022-10-18T18:01:12.613Z,96461.66
2022-10-18T18:03:39.828Z,96452.88
2022-10-18T18:06:21.825Z,96458.66
2022-10-18T18:08:49.992Z,96460.28
2022-10-18T18:11:18.252Z,96460.97
2022-10-18T18:13:45.283Z,96465.34
2022-10-18T18:16:12.857Z,96471.53
2022-10-18T18:18:39.461Z,96469.66
2022-10-18T18:21:05.919Z,96462.88
2022-10-18T18:23:32.382Z,96470.31
2022-10-18T18:25:58.845Z,96467.47
2022-10-18T18:28:25.386Z,96470.78
2022-10-18T18:30:51.979Z,96475.06
2022-10-18T18:33:18.429Z,96480.00
2022-10-18T18:35:54.333Z,96472.97
2022-10-18T18:38:20.800Z,96472.25
2022-10-18T18:40:49.020Z,96477.56
2022-10-18T18:43:23.559Z,96470.94
2022-10-18T18:45:51.018Z,96478.19
2022-10-18T18:48:19.744Z,96473.44
2022-10-18T18:50:46.781Z,96479.22
2022-10-18T18:53:13.249Z,96472.22
2022-10-18T18:55:40.046Z,96477.97
2022-10-18T18:58:07.769Z,96478.59
2022-10-18T19:00:40.388Z,96474.09
2022-10-18T19:03:13.556Z,96478.03
2022-10-18T19:05:49.468Z,96473.06
2022-10-18T19:08:15.947Z,96467.75
2022-10-18T19:10:42.399Z,96466.31
2022-10-18T19:13:08.878Z,96469.41
2022-10-18T19:15:35.490Z,96485.31
2022-10-18T19:18:01.986Z,96478.94
2022-10-18T19:20:28.471Z,96478.13
2022-10-18T19:22:54.962Z,96470.72
2022-10-18T19:25:26.269Z,96477.91
2022-10-18T19:27:53.524Z,96473.56
2022-10-18T19:30:20.097Z,96474.03
2022-10-18T19:32:46.921Z,96465.44
2022-10-18T19:35:13.455Z,96463.97
2022-10-18T19:37:39.910Z,96467.50
2022-10-18T19:40:06.814Z,96464.63
2022-10-18T19:42:33.687Z,96461.72
2022-10-18T19:45:00.324Z,96469.16
2022-10-18T19:47:26.904Z,96472.44
2022-10-18T19:49:53.372Z,96466.28
2022-10-18T19:52:19.912Z,96465.03
2022-10-18T19:54:48.593Z,96469.78
2022-10-18T19:57:15.112Z,96466.50
2022-10-18T20:02:14.207Z,96473.50
2022-10-18T20:04:40.684Z,96484.78
2022-10-18T20:07:07.173Z,96472.28
2022-10-18T20:09:33.701Z,96472.28
2022-10-18T20:12:00.155Z,96472.91
2022-10-18T20:14:26.636Z,96473.31
2022-10-18T20:16:53.106Z,96464.09
2022-10-18T20:19:19.567Z,96463.66
2022-10-18T20:21:46.059Z,96473.34
2022-10-18T20:24:15.651Z,96464.47
2022-10-18T20:26:42.110Z,96466.75
2022-10-18T20:29:08.631Z,96474.38
2022-10-18T20:31:36.702Z,96468.63
2022-10-18T20:34:05.713Z,96470.28
2022-10-18T20:36:33.176Z,96463.72
2022-10-18T20:39:00.097Z,96470.50
2022-10-18T20:41:29.473Z,96467.19
2022-10-18T20:43:58.978Z,96472.94
2022-10-18T20:46:26.990Z,96476.47
2022-10-18T20:48:54.158Z,96473.34
2022-10-18T20:51:21.951Z,96475.41
2022-10-18T20:53:49.397Z,96475.81
2022-10-18T20:56:18.844Z,96474.78
2022-10-18T20:58:46.413Z,96470.88
2022-10-18T21:01:25.588Z,96469.03
2022-10-18T21:03:54.840Z,96470.88
2022-10-18T21:06:30.420Z,96475.81
2022-10-18T21:09:03.047Z,96472.53
2022-10-18T21:11:34.064Z,96472.13
2022-10-18T21:14:02.114Z,96474.38
2022-10-18T21:16:30.493Z,96465.75
2022-10-18T21:19:01.780Z,96461.00
2022-10-18T21:21:28.276Z,96458.47
2022-10-18T21:23:55.109Z,96459.34
2022-10-18T21:26:24.279Z,96458.16
2022-10-18T21:28:52.890Z,96457.94
2022-10-18T21:31:24.662Z,96463.06
2022-10-18T21:34:02.115Z,96457.31
2022-10-18T21:36:39.933Z,96452.38
2022-10-18T21:39:10.327Z,96459.78
2022-10-18T21:41:37.112Z,96445.00
2022-10-18T21:44:06.960Z,96453.63
2022-10-18T21:46:37.198Z,96449.69
2022-10-18T21:49:03.822Z,96448.69
2022-10-18T21:51:30.297Z,96446.63
2022-10-18T21:53:58.231Z,96451.56
2022-10-18T21:56:32.408Z,96442.13
2022-10-18T21:59:00.009Z,96437.81
2022-10-18T22:01:29.897Z,96437.59
2022-10-18T22:03:57.163Z,96443.56
2022-10-18T22:06:25.502Z,96436.97
2022-10-18T22:08:55.198Z,96430.59
2022-10-18T22:11:25.923Z,96433.91
2022-10-18T22:13:53.421Z,96432.88
2022-10-18T22:16:19.960Z,96429.16
2022-10-18T22:18:48.980Z,96431.00
2022-10-18T22:21:18.476Z,96435.47
2022-10-18T22:23:47.983Z,96427.25
2022-10-18T22:26:29.566Z,96423.56
2022-10-18T22:29:17.031Z,96425.59
2022-10-18T22:31:46.890Z,96424.81
2022-10-18T22:34:20.044Z,96421.13
2022-10-18T22:36:46.780Z,96422.75
2022-10-18T22:39:14.234Z,96423.56
2022-10-18T22:41:41.750Z,96412.47
2022-10-18T22:44:11.465Z,96415.94
2022-10-18T22:46:38.824Z,96407.94
2022-10-18T22:49:05.674Z,96405.28
2022-10-18T22:51:32.407Z,96407.28
2022-10-18T22:53:59.039Z,96404.63
2022-10-18T22:56:25.862Z,96406.47
2022-10-18T22:58:52.430Z,96402.78
2022-10-18T23:01:21.849Z,96400.72
2022-10-18T23:03:55.424Z,96397.56
2022-10-18T23:06:28.005Z,96398.41
2022-10-18T23:08:56.583Z,96391.81
2022-10-18T23:11:24.855Z,96392.81
2022-10-18T23:13:51.482Z,96389.53
2022-10-18T23:16:18.540Z,96389.34
2022-10-18T23:18:49.847Z,96386.47
2022-10-18T23:21:16.424Z,96386.44
2022-10-18T23:23:43.130Z,96391.78
2022-10-18T23:26:15.380Z,96376.19
2022-10-18T23:28:45.034Z,96373.56
2022-10-18T23:31:15.881Z,96378.72
2022-10-18T23:33:42.344Z,96371.31
2022-10-18T23:36:09.305Z,96375.03
2022-10-18T23:38:37.660Z,96371.31
2022-10-18T23:41:09.955Z,96367.22
2022-10-18T23:43:36.556Z,96375.81
2022-10-18T23:46:06.342Z,96374.94
2022-10-18T23:48:32.805Z,96376.19
2022-10-18T23:50:59.736Z,96374.56
2022-10-18T23:53:26.420Z,96372.09
2022-10-18T23:56:01.273Z,96368.44
2022-10-18T23:58:33.421Z,96372.13
